Time;durP1;ratioP1;P1;durP2;ratioP2;P2;SDS_P1;SDS_P2;PMS_P1;PMS_P2;Temp;Humidity;BMP_temperature;BMP_pressure;BME280_temperature;BME280_humidity;BME280_pressure;Samples;Min_cycle;Max_cycle;Signal;HPM_P1;HPM_P2
2021/06/24 00:00:20;;;;;;;10.63;9.63;;;19.50;99.90;;;;;;5066085;28;20824;-75
2021/06/24 00:03:06;;;;;;;14.90;10.40;;;19.50;99.90;;;;;;5066403;28;20417;-74
2021/06/24 00:05:52;;;;;;;12.33;9.80;;;19.50;99.90;;;;;;5069936;28;20858;-74
2021/06/24 00:08:38;;;;;;;13.60;10.87;;;19.40;99.90;;;;;;5062549;28;20474;-74
2021/06/24 00:11:24;;;;;;;12.37;10.53;;;19.40;99.90;;;;;;5062163;28;20963;-75
2021/06/24 00:14:11;;;;;;;12.63;10.80;;;19.40;99.90;;;;;;5063861;28;21140;-75
2021/06/24 00:16:57;;;;;;;9.90;8.87;;;19.50;99.90;;;;;;5064921;28;20822;-75
2021/06/24 00:19:42;;;;;;;14.97;10.17;;;19.50;99.90;;;;;;5069225;28;20425;-75
2021/06/24 00:22:28;;;;;;;12.83;10.43;;;19.50;99.90;;;;;;5064586;28;20594;-75
2021/06/24 00:25:14;;;;;;;11.20;10.00;;;19.50;99.90;;;;;;5067734;28;20490;-74
2021/06/24 00:28:01;;;;;;;11.40;10.10;;;19.50;99.90;;;;;;5068043;28;20535;-75
2021/06/24 00:30:51;;;;;;;12.97;9.97;;;19.50;99.90;;;;;;5064105;28;20454;-75
2021/06/24 00:33:37;;;;;;;18.23;9.83;;;19.50;99.90;;;;;;5059935;28;20419;-75
2021/06/24 00:36:23;;;;;;;12.53;10.27;;;19.60;99.90;;;;;;5069986;28;20556;-75
2021/06/24 00:39:08;;;;;;;12.73;10.40;;;19.60;99.90;;;;;;5074302;28;20448;-75
2021/06/24 00:41:54;;;;;;;10.77;9.67;;;19.70;99.90;;;;;;5059606;28;20425;-75
2021/06/24 00:44:40;;;;;;;10.73;9.73;;;19.70;99.90;;;;;;5068211;28;20666;-75
2021/06/24 00:47:27;;;;;;;11.27;10.17;;;19.70;99.90;;;;;;5066163;28;20444;-75
2021/06/24 00:50:14;;;;;;;10.33;9.33;;;19.80;99.90;;;;;;5062872;28;20449;-75
2021/06/24 00:53:00;;;;;;;11.50;10.23;;;19.90;99.90;;;;;;5061527;28;20454;-74
2021/06/24 00:55:46;;;;;;;9.73;8.73;;;19.90;99.90;;;;;;5064615;28;20450;-75
2021/06/24 00:58:32;;;;;;;13.37;9.87;;;20.00;99.90;;;;;;5070957;28;20530;-75
2021/06/24 01:01:18;;;;;;;13.90;9.43;;;20.00;99.90;;;;;;5072376;28;20454;-75
2021/06/24 01:04:05;;;;;;;13.37;10.10;;;19.90;99.90;;;;;;5063848;28;20965;-75
2021/06/24 01:06:51;;;;;;;15.03;10.43;;;19.80;99.90;;;;;;5065179;28;20462;-75
2021/06/24 01:09:37;;;;;;;10.50;9.40;;;19.90;99.90;;;;;;5063920;28;20462;-75
2021/06/24 01:12:23;;;;;;;11.17;9.30;;;19.70;99.90;;;;;;5060731;28;20442;-75
2021/06/24 01:15:09;;;;;;;14.60;10.50;;;19.80;99.90;;;;;;5067819;28;20454;-75
2021/06/24 01:17:56;;;;;;;12.00;10.13;;;19.80;99.90;;;;;;5061060;28;20967;-75
2021/06/24 01:20:43;;;;;;;10.77;9.77;;;19.70;99.90;;;;;;5065659;28;20514;-75
2021/06/24 01:23:29;;;;;;;10.67;9.63;;;19.70;99.90;;;;;;5068863;28;20543;-75
2021/06/24 01:26:17;;;;;;;11.87;10.47;;;19.80;99.90;;;;;;5061689;28;20470;-75
2021/06/24 01:29:02;;;;;;;13.03;9.90;;;19.70;99.90;;;;;;5066092;28;20475;-75
2021/06/24 01:31:47;;;;;;;10.80;9.63;;;19.70;99.90;;;;;;5067965;28;20445;-75
2021/06/24 01:34:34;;;;;;;11.07;9.97;;;19.60;99.90;;;;;;5075717;22;20462;-72
2021/06/24 01:37:19;;;;;;;11.33;10.33;;;19.60;99.90;;;;;;5024417;28;20445;-73
2021/06/24 01:40:06;;;;;;;14.07;10.30;;;19.60;99.90;;;;;;5021998;28;20425;-75
2021/06/24 01:42:53;;;;;;;10.37;9.27;;;19.60;99.90;;;;;;5023903;28;20454;-74
2021/06/24 01:45:46;;;;;;;12.17;10.97;;;19.50;99.90;;;;;;5022399;28;20522;-75
2021/06/24 01:48:32;;;;;;;11.00;9.90;;;19.50;99.90;;;;;;5024347;28;20449;-74
2021/06/24 01:51:18;;;;;;;11.60;10.50;;;19.40;99.90;;;;;;5029258;28;21886;-75
2021/06/24 01:54:04;;;;;;;13.57;11.03;;;19.30;99.90;;;;;;5025854;28;20510;-75
2021/06/24 01:56:50;;;;;;;14.50;10.37;;;19.40;99.90;;;;;;5028092;28;20447;-75
2021/06/24 01:59:37;;;;;;;12.23;10.87;;;19.40;99.90;;;;;;5028545;28;20455;-75
2021/06/24 02:02:23;;;;;;;11.90;9.77;;;19.50;99.90;;;;;;5026479;28;21067;-75
2021/06/24 02:05:10;;;;;;;13.63;10.30;;;19.50;99.90;;;;;;5022743;28;20565;-75
2021/06/24 02:07:56;;;;;;;13.83;11.70;;;19.50;99.90;;;;;;5030033;28;20453;-75
2021/06/24 02:10:42;;;;;;;15.47;11.50;;;19.50;99.90;;;;;;5023259;28;20464;-75
2021/06/24 02:13:27;;;;;;;13.87;11.20;;;19.50;99.90;;;;;;5035717;28;20428;-75
2021/06/24 02:16:15;;;;;;;13.83;12.20;;;19.60;99.90;;;;;;5025504;28;20773;-75
2021/06/24 02:19:01;;;;;;;14.90;11.30;;;19.70;99.90;;;;;;5028520;28;20925;-73
2021/06/24 02:21:46;;;;;;;12.60;11.00;;;19.60;99.90;;;;;;5028475;28;20446;-75
2021/06/24 02:24:32;;;;;;;13.30;12.00;;;19.70;99.90;;;;;;5029958;28;20478;-74
2021/06/24 02:27:17;;;;;;;15.63;13.47;;;19.70;99.90;;;;;;5029418;28;20483;-74
2021/06/24 02:30:04;;;;;;;16.37;12.40;;;19.60;99.90;;;;;;5032564;28;20421;-74
2021/06/24 02:32:52;;;;;;;18.20;13.00;;;19.50;99.90;;;;;;5032247;28;20478;-75
2021/06/24 02:35:39;;;;;;;18.97;13.80;;;19.40;99.90;;;;;;5030697;28;20456;-74
2021/06/24 02:38:25;;;;;;;15.60;13.50;;;19.30;99.90;;;;;;5031312;28;20487;-74
2021/06/24 02:41:10;;;;;;;16.53;13.73;;;19.30;99.90;;;;;;5032501;28;20798;-74
2021/06/24 02:43:56;;;;;;;20.33;14.77;;;19.30;99.90;;;;;;5031164;28;20452;-74
2021/06/24 02:46:42;;;;;;;14.23;12.73;;;19.20;99.90;;;;;;5031654;28;20477;-75
2021/06/24 02:49:29;;;;;;;14.87;13.37;;;19.20;99.90;;;;;;5032493;28;20901;-75
2021/06/24 02:52:15;;;;;;;15.47;13.97;;;19.20;99.90;;;;;;5035886;28;20453;-76
2021/06/24 02:55:00;;;;;;;17.13;13.60;;;19.20;99.90;;;;;;5028295;28;20826;-75
2021/06/24 02:57:46;;;;;;;14.20;12.60;;;19.20;99.90;;;;;;5033670;28;20583;-74
2021/06/24 03:00:32;;;;;;;14.70;12.77;;;19.00;99.90;;;;;;5032515;28;20530;-74
2021/06/24 03:03:17;;;;;;;15.07;13.53;;;19.10;99.90;;;;;;5033047;28;20463;-74
2021/06/24 03:06:05;;;;;;;15.83;12.80;;;19.10;99.90;;;;;;5032062;28;20492;-75
2021/06/24 03:08:51;;;;;;;15.50;13.90;;;19.10;99.90;;;;;;5026600;28;20498;-75
2021/06/24 03:11:37;;;;;;;16.50;13.93;;;19.10;99.90;;;;;;5032658;28;20448;-75
2021/06/24 03:14:23;;;;;;;16.37;14.87;;;19.10;99.90;;;;;;5031709;28;21067;-75
2021/06/24 03:17:09;;;;;;;19.40;13.70;;;19.10;99.90;;;;;;5029164;28;20461;-75
2021/06/24 03:19:54;;;;;;;17.77;12.93;;;19.20;99.90;;;;;;5027688;28;20525;-74
2021/06/24 03:22:41;;;;;;;16.73;14.83;;;19.10;99.90;;;;;;5031313;28;20976;-75
2021/06/24 03:25:28;;;;;;;19.43;13.10;;;19.20;99.90;;;;;;5035206;28;20550;-75
2021/06/24 03:28:14;;;;;;;13.27;11.97;;;19.20;99.90;;;;;;5031578;28;20992;-75
2021/06/24 03:31:00;;;;;;;18.50;12.90;;;19.20;99.90;;;;;;5031668;28;20420;-75
2021/06/24 03:33:45;;;;;;;23.50;13.40;;;19.20;99.90;;;;;;5028822;28;20512;-75
2021/06/24 03:36:31;;;;;;;16.43;13.77;;;19.10;99.90;;;;;;5030679;28;20444;-74
2021/06/24 03:39:18;;;;;;;15.10;13.20;;;19.20;99.90;;;;;;5028816;28;20424;-75
2021/06/24 03:42:04;;;;;;;16.83;14.70;;;19.10;99.90;;;;;;5031488;28;20943;-75
2021/06/24 03:44:50;;;;;;;17.10;14.07;;;19.20;99.90;;;;;;5029588;28;21045;-75
2021/06/24 03:47:36;;;;;;;15.83;14.23;;;19.20;99.90;;;;;;5027291;28;20541;-75
2021/06/24 03:50:22;;;;;;;14.67;13.07;;;19.20;99.90;;;;;;5030861;28;20426;-75
2021/06/24 03:53:08;;;;;;;16.43;14.70;;;19.10;99.90;;;;;;5034003;28;20401;-74
2021/06/24 03:55:55;;;;;;;13.03;11.80;;;19.10;99.90;;;;;;5029111;28;20476;-75
2021/06/24 03:58:40;;;;;;;15.70;12.90;;;19.10;99.90;;;;;;5026646;28;20476;-75
2021/06/24 04:01:26;;;;;;;15.30;12.63;;;19.10;99.90;;;;;;5029937;28;20467;-73
2021/06/24 04:04:12;;;;;;;15.60;12.97;;;19.20;99.90;;;;;;5028032;28;20816;-75
2021/06/24 04:06:58;;;;;;;13.87;12.33;;;19.20;99.90;;;;;;5031175;28;20556;-75
2021/06/24 04:09:43;;;;;;;14.33;13.03;;;19.20;99.90;;;;;;5030055;28;20826;-75
2021/06/24 04:12:31;;;;;;;11.93;10.73;;;19.20;99.90;;;;;;5030621;28;20782;-75
2021/06/24 04:15:17;;;;;;;12.60;11.40;;;19.30;99.90;;;;;;5029659;28;20827;-75
2021/06/24 04:18:03;;;;;;;12.80;10.50;;;19.30;99.90;;;;;;5028289;28;20452;-74
2021/06/24 04:20:49;;;;;;;13.07;10.90;;;19.20;99.90;;;;;;5029164;28;20518;-74
2021/06/24 04:23:34;;;;;;;11.50;10.40;;;19.20;99.90;;;;;;5033140;28;20402;-75
2021/06/24 04:26:20;;;;;;;13.30;10.60;;;19.20;99.90;;;;;;5028615;28;21139;-75
2021/06/24 04:29:07;;;;;;;12.00;9.30;;;19.20;99.90;;;;;;5026497;28;20435;-74
2021/06/24 04:31:53;;;;;;;11.60;9.70;;;19.20;99.90;;;;;;5024130;28;20423;-74
2021/06/24 04:34:38;;;;;;;13.47;11.17;;;19.20;99.90;;;;;;5026970;28;20585;-75
2021/06/24 04:37:24;;;;;;;10.33;9.03;;;19.10;99.90;;;;;;5032490;28;20456;-75
2021/06/24 04:40:12;;;;;;;10.40;9.40;;;19.10;99.90;;;;;;5026448;28;20479;-75
2021/06/24 04:42:58;;;;;;;12.70;9.93;;;19.10;99.90;;;;;;5029565;28;20449;-75
2021/06/24 04:45:45;;;;;;;10.10;9.20;;;19.10;99.90;;;;;;5028875;28;20837;-75
2021/06/24 04:48:31;;;;;;;10.60;9.50;;;19.10;99.90;;;;;;5033560;28;20481;-75
2021/06/24 04:51:16;;;;;;;12.43;9.80;;;19.10;99.90;;;;;;5034907;28;20424;-75
2021/06/24 04:54:02;;;;;;;10.87;9.77;;;19.00;99.90;;;;;;5025954;28;20445;-75
2021/06/24 04:56:48;;;;;;;10.53;9.50;;;19.10;99.90;;;;;;5031979;28;20969;-75
2021/06/24 04:59:34;;;;;;;15.37;9.50;;;19.00;99.90;;;;;;5028808;28;20455;-74
2021/06/24 05:02:21;;;;;;;14.30;10.07;;;19.00;99.90;;;;;;5029351;28;20448;-75
2021/06/24 05:05:08;;;;;;;10.60;9.10;;;19.00;99.90;;;;;;5030517;28;20455;-75
2021/06/24 05:07:54;;;;;;;9.83;8.83;;;19.10;99.90;;;;;;5025702;28;20479;-75
2021/06/24 05:10:41;;;;;;;10.50;9.27;;;19.00;99.90;;;;;;5029192;28;20451;-76
2021/06/24 05:13:26;;;;;;;10.90;9.20;;;19.00;99.90;;;;;;5027206;28;20566;-75
2021/06/24 05:16:12;;;;;;;10.63;9.53;;;19.00;99.90;;;;;;5027123;28;20476;-75
2021/06/24 05:18:59;;;;;;;12.40;11.03;;;19.00;99.90;;;;;;5024714;28;20459;-74
2021/06/24 05:21:44;;;;;;;9.80;8.80;;;19.00;99.90;;;;;;5029256;28;20455;-74
2021/06/24 05:24:30;;;;;;;11.00;9.20;;;19.00;99.90;;;;;;5029272;28;20524;-75
2021/06/24 05:27:16;;;;;;;10.30;9.17;;;19.10;99.90;;;;;;5030746;28;20449;-75
2021/06/24 05:30:02;;;;;;;10.70;9.70;;;19.10;99.90;;;;;;5026059;28;20562;-74
2021/06/24 05:32:48;;;;;;;8.73;7.93;;;19.10;99.90;;;;;;5033358;28;20926;-75
2021/06/24 05:35:34;;;;;;;9.60;8.70;;;19.10;99.90;;;;;;5028315;28;20475;-75
2021/06/24 05:38:20;;;;;;;10.77;9.67;;;19.10;99.90;;;;;;5027556;28;20443;-75
2021/06/24 05:41:06;;;;;;;10.20;9.20;;;19.10;99.90;;;;;;5028223;28;20441;-75
2021/06/24 05:43:51;;;;;;;11.30;10.10;;;19.10;99.90;;;;;;5027345;28;20475;-75
2021/06/24 05:46:37;;;;;;;9.33;8.47;;;19.10;99.90;;;;;;5026680;28;20483;-74
2021/06/24 05:49:23;;;;;;;14.83;9.73;;;19.20;99.90;;;;;;5029048;28;20448;-75
2021/06/24 05:52:10;;;;;;;12.33;10.43;;;19.10;99.90;;;;;;5032162;28;20448;-72
2021/06/24 05:54:56;;;;;;;10.80;9.40;;;19.20;99.90;;;;;;5028199;28;20561;-75
2021/06/24 05:57:41;;;;;;;9.30;8.00;;;19.20;99.90;;;;;;5030171;28;20406;-75
2021/06/24 06:00:27;;;;;;;9.63;8.63;;;19.20;99.90;;;;;;5029344;28;20478;-75
2021/06/24 06:03:13;;;;;;;10.23;8.00;;;19.20;99.90;;;;;;5034530;28;20490;-75
2021/06/24 06:05:58;;;;;;;10.77;7.70;;;19.20;99.90;;;;;;5031966;28;20810;-75
2021/06/24 06:08:45;;;;;;;9.83;6.53;;;19.10;99.90;;;;;;5031185;28;20430;-74
2021/06/24 06:11:31;;;;;;;7.33;6.63;;;19.10;99.90;;;;;;5032722;28;20923;-74
2021/06/24 06:14:17;;;;;;;7.77;6.97;;;19.10;99.90;;;;;;5028208;28;20471;-75
2021/06/24 06:17:03;;;;;;;7.03;6.33;;;19.10;99.90;;;;;;5030841;28;20452;-75
2021/06/24 06:19:48;;;;;;;10.17;7.03;;;19.10;99.90;;;;;;5031222;28;20594;-75
2021/06/24 06:22:34;;;;;;;7.03;6.33;;;19.10;99.90;;;;;;5033599;28;20499;-74
2021/06/24 06:25:21;;;;;;;6.90;6.20;;;19.10;99.90;;;;;;5032510;28;20530;-75
2021/06/24 06:28:07;;;;;;;7.47;6.87;;;19.10;99.90;;;;;;5033137;28;20449;-75
2021/06/24 06:30:54;;;;;;;7.60;6.87;;;19.10;99.90;;;;;;5031727;28;20469;-75
2021/06/24 06:33:40;;;;;;;7.50;6.80;;;19.20;99.90;;;;;;5027752;28;20991;-74
2021/06/24 06:36:26;;;;;;;7.80;7.10;;;19.20;99.90;;;;;;5031056;28;20827;-73
2021/06/24 06:39:12;;;;;;;7.57;6.87;;;19.20;99.90;;;;;;5028635;28;20854;-74
2021/06/24 06:41:59;;;;;;;7.53;6.70;;;19.20;99.90;;;;;;5031276;28;20478;-75
2021/06/24 06:44:45;;;;;;;9.00;7.80;;;19.30;99.90;;;;;;5029723;28;20658;-74
2021/06/24 06:47:31;;;;;;;9.30;7.77;;;19.30;99.90;;;;;;5032558;28;20479;-75
2021/06/24 06:50:17;;;;;;;8.07;7.23;;;19.30;99.90;;;;;;5032179;28;20438;-76
2021/06/24 06:53:02;;;;;;;9.83;8.87;;;19.30;99.90;;;;;;5034625;28;20402;-76
2021/06/24 06:55:48;;;;;;;8.60;7.50;;;19.30;99.90;;;;;;5031270;28;20446;-75
2021/06/24 06:58:35;;;;;;;8.97;8.10;;;19.30;99.90;;;;;;5052688;28;20405;-75
2021/06/24 07:01:21;;;;;;;9.57;8.17;;;19.30;99.90;;;;;;5034471;28;20462;-75
2021/06/24 07:04:06;;;;;;;9.10;8.20;;;19.30;99.90;;;;;;5037616;28;20467;-76
2021/06/24 07:06:52;;;;;;;9.80;8.80;;;19.40;99.90;;;;;;5042194;28;20822;-76
2021/06/24 07:09:39;;;;;;;10.83;7.40;;;19.40;99.90;;;;;;5036447;28;20442;-75
2021/06/24 07:12:25;;;;;;;10.03;9.00;;;19.30;99.90;;;;;;5034177;28;20459;-75
2021/06/24 07:15:13;;;;;;;13.63;9.40;;;19.30;99.90;;;;;;5032240;28;20519;-75
2021/06/24 07:17:59;;;;;;;9.37;8.47;;;19.40;99.90;;;;;;5029302;28;20588;-75
2021/06/24 07:20:45;;;;;;;9.90;8.90;;;19.40;99.90;;;;;;5033278;28;20418;-76
2021/06/24 07:23:30;;;;;;;11.77;9.73;;;19.40;99.90;;;;;;5033944;28;20451;-75
2021/06/24 07:26:17;;;;;;;9.03;8.13;;;19.40;99.90;;;;;;5037939;28;20415;-73
2021/06/24 07:29:02;;;;;;;10.50;9.50;;;19.40;99.90;;;;;;5030911;28;21044;-75
2021/06/24 07:31:49;;;;;;;9.80;8.73;;;19.40;99.90;;;;;;5028453;28;20518;-74
2021/06/24 07:34:35;;;;;;;10.20;9.20;;;19.50;99.90;;;;;;5047881;22;20458;-74
2021/06/24 07:37:21;;;;;;;8.70;8.00;;;19.50;99.90;;;;;;5063682;28;20946;-73
2021/06/24 07:40:08;;;;;;;13.10;9.60;;;19.50;99.90;;;;;;5068265;28;20509;-74
2021/06/24 07:42:53;;;;;;;10.23;9.23;;;19.50;99.90;;;;;;5071465;28;20445;-74
2021/06/24 07:45:39;;;;;;;9.43;8.10;;;19.50;99.90;;;;;;5063358;28;20493;-74
2021/06/24 07:48:27;;;;;;;9.57;8.60;;;19.40;99.90;;;;;;5066758;28;20444;-74
2021/06/24 07:51:12;;;;;;;10.57;9.50;;;19.40;99.90;;;;;;5065341;28;20790;-74
2021/06/24 07:53:58;;;;;;;10.07;8.97;;;19.40;99.90;;;;;;5069917;28;20442;-74
2021/06/24 07:56:44;;;;;;;12.80;10.47;;;19.40;99.90;;;;;;5070421;28;20543;-74
2021/06/24 07:59:29;;;;;;;9.97;8.97;;;19.40;99.90;;;;;;5066425;28;20450;-74
2021/06/24 08:02:15;;;;;;;14.03;9.70;;;19.40;99.90;;;;;;5069651;28;20454;-74
2021/06/24 08:05:02;;;;;;;11.50;10.30;;;19.50;99.90;;;;;;5069852;28;20442;-74
2021/06/24 08:07:49;;;;;;;11.50;10.30;;;19.40;99.90;;;;;;5064712;28;20462;-73
2021/06/24 08:10:34;;;;;;;10.73;9.10;;;19.40;99.90;;;;;;5066536;28;20514;-73
2021/06/24 08:13:20;;;;;;;10.00;9.10;;;19.40;99.90;;;;;;5062737;28;20457;-74
2021/06/24 08:16:06;;;;;;;11.80;10.60;;;19.50;99.90;;;;;;5065748;28;20470;-74
2021/06/24 08:18:52;;;;;;;10.63;9.63;;;19.60;99.90;;;;;;5067221;28;20445;-74
2021/06/24 08:21:39;;;;;;;12.93;11.63;;;19.60;99.90;;;;;;5072137;28;20765;-73
2021/06/24 08:24:25;;;;;;;12.67;11.23;;;19.70;99.90;;;;;;5070401;28;20542;-74
2021/06/24 08:27:11;;;;;;;12.30;11.10;;;19.70;99.90;;;;;;5069752;28;20447;-74
2021/06/24 08:29:57;;;;;;;10.23;9.23;;;19.70;99.90;;;;;;5069674;28;20459;-74
2021/06/24 08:32:43;;;;;;;13.47;10.60;;;19.70;99.90;;;;;;5066433;28;20505;-74
2021/06/24 08:35:28;;;;;;;11.97;10.50;;;19.80;99.90;;;;;;5050494;28;20508;-74
2021/06/24 08:38:16;;;;;;;11.03;9.93;;;19.80;99.90;;;;;;5057966;28;20418;-74
2021/06/24 08:41:01;;;;;;;9.80;8.77;;;19.70;99.90;;;;;;5065179;28;21023;-73
2021/06/24 08:43:48;;;;;;;10.67;9.67;;;19.80;99.90;;;;;;5057569;28;21121;-75
2021/06/24 08:46:34;;;;;;;11.00;9.43;;;19.80;99.90;;;;;;5061417;28;20441;-74
2021/06/24 08:49:24;;;;;;;12.57;10.70;;;19.90;99.90;;;;;;5060984;28;20456;-74
2021/06/24 08:52:11;;;;;;;17.83;10.87;;;19.90;99.90;;;;;;5068246;28;20430;-74
2021/06/24 08:54:58;;;;;;;12.83;10.60;;;19.90;99.90;;;;;;5071401;28;20467;-74
2021/06/24 08:57:44;;;;;;;9.80;8.80;;;20.00;99.90;;;;;;5070591;28;20429;-74
2021/06/24 09:00:30;;;;;;;10.77;9.57;;;20.00;99.90;;;;;;5060313;28;20815;-75
2021/06/24 09:03:17;;;;;;;11.20;10.10;;;20.10;99.90;;;;;;5065279;28;20822;-74
2021/06/24 09:06:05;;;;;;;11.20;10.13;;;20.10;99.90;;;;;;5057363;28;20840;-75
2021/06/24 09:08:53;;;;;;;10.13;8.97;;;20.10;99.90;;;;;;5066540;28;20580;-74
2021/06/24 09:11:41;;;;;;;11.00;9.90;;;20.20;99.90;;;;;;5064791;28;20863;-74
2021/06/24 09:14:36;;;;;;;12.77;10.40;;;20.20;99.90;;;;;;5067863;28;20446;-73
2021/06/24 09:17:37;;;;;;;11.27;8.03;;;20.20;99.90;;;;;;5062124;28;20501;-73
2021/06/24 09:20:32;;;;;;;9.20;8.30;;;20.20;99.90;;;;;;5059357;28;20540;-73
2021/06/24 09:23:20;;;;;;;9.43;8.53;;;20.20;99.90;;;;;;5068123;28;20426;-73
2021/06/24 09:26:13;;;;;;;9.67;8.73;;;20.20;99.90;;;;;;5057309;28;20468;-73
2021/06/24 09:29:00;;;;;;;8.60;7.80;;;20.10;99.90;;;;;;5064725;28;20542;-73
2021/06/24 09:31:50;;;;;;;8.87;8.00;;;20.10;99.90;;;;;;5067858;28;20524;-73
2021/06/24 09:34:36;;;;;;;9.00;8.10;;;20.10;99.90;;;;;;5056240;28;20442;-74
2021/06/24 09:37:22;;;;;;;9.50;7.87;;;20.10;99.90;;;;;;5061641;28;20447;-73
2021/06/24 09:40:13;;;;;;;8.57;7.77;;;20.20;99.90;;;;;;5061943;28;20448;-73
2021/06/24 09:42:58;;;;;;;9.40;7.80;;;20.10;99.90;;;;;;5067349;28;20466;-73
2021/06/24 09:46:05;;;;;;;8.20;7.40;;;20.10;99.90;;;;;;5066210;28;20445;-73
2021/06/24 09:48:55;;;;;;;10.30;8.50;;;20.00;99.90;;;;;;5065553;28;20818;-74
2021/06/24 09:51:41;;;;;;;8.30;7.53;;;20.00;99.90;;;;;;5066795;28;20443;-73
2021/06/24 09:54:39;;;;;;;9.93;8.97;;;20.00;99.90;;;;;;5067164;28;20446;-74
2021/06/24 09:57:25;;;;;;;10.30;8.77;;;20.00;99.90;;;;;;5064581;28;20422;-74
2021/06/24 10:00:22;;;;;;;10.30;8.90;;;20.00;99.90;;;;;;5063226;28;20505;-74
2021/06/24 10:03:12;;;;;;;9.50;8.63;;;19.90;99.90;;;;;;5062494;28;20460;-74
2021/06/24 10:05:57;;;;;;;12.17;9.20;;;19.90;99.90;;;;;;5074828;28;20532;-74
2021/06/24 10:08:43;;;;;;;9.60;8.60;;;19.90;99.90;;;;;;5072416;28;20449;-74
2021/06/24 10:11:28;;;;;;;11.40;6.97;;;19.90;99.90;;;;;;5068332;28;20453;-74
2021/06/24 10:14:15;;;;;;;11.47;7.70;;;19.80;99.90;;;;;;5066895;28;20449;-75
2021/06/24 10:17:03;;;;;;;14.50;8.73;;;19.70;99.90;;;;;;5062900;28;20400;-75
2021/06/24 10:19:54;;;;;;;7.73;6.93;;;19.60;99.90;;;;;;5065166;28;20516;-73
2021/06/24 10:22:41;;;;;;;10.10;6.80;;;19.50;99.90;;;;;;5069340;28;20455;-73
2021/06/24 10:25:28;;;;;;;9.97;6.90;;;19.40;99.90;;;;;;5068240;28;20547;-74
2021/06/24 10:28:14;;;;;;;7.10;5.73;;;19.40;99.90;;;;;;5070759;28;20522;-74
2021/06/24 10:30:59;;;;;;;9.33;6.10;;;19.20;99.90;;;;;;5067303;28;20566;-74
2021/06/24 10:33:55;;;;;;;7.17;6.00;;;19.30;99.90;;;;;;5063386;28;20419;-74
2021/06/24 10:37:12;;;;;;;8.97;6.43;;;19.30;99.90;;;;;;5068942;28;20463;-74
2021/06/24 10:39:59;;;;;;;9.20;6.80;;;19.30;99.90;;;;;;5069385;28;20424;-73
2021/06/24 10:42:52;;;;;;;8.60;7.47;;;19.30;99.90;;;;;;5064538;28;20579;-74
2021/06/24 10:45:39;;;;;;;12.23;8.77;;;19.30;99.90;;;;;;5068758;28;20545;-73
2021/06/24 10:48:26;;;;;;;7.47;6.70;;;19.30;99.90;;;;;;5071115;28;20465;-73
2021/06/24 10:51:14;;;;;;;9.40;7.60;;;19.30;99.90;;;;;;5072086;28;20543;-73
2021/06/24 10:54:01;;;;;;;9.20;8.30;;;19.30;99.90;;;;;;5066503;28;20518;-73
2021/06/24 10:56:48;;;;;;;8.67;7.87;;;19.20;99.90;;;;;;5059399;28;20752;-73
2021/06/24 10:59:34;;;;;;;9.33;8.43;;;19.20;99.90;;;;;;5068511;28;20446;-73
2021/06/24 11:02:21;;;;;;;8.70;7.63;;;19.20;99.90;;;;;;5057632;28;20452;-73
2021/06/24 11:05:18;;;;;;;9.70;7.30;;;19.20;99.90;;;;;;5068034;28;20584;-73
2021/06/24 11:08:11;;;;;;;9.03;8.10;;;19.20;99.90;;;;;;5064028;28;20479;-73
2021/06/24 11:10:59;;;;;;;11.43;8.40;;;19.20;99.90;;;;;;5065696;28;20462;-73
2021/06/24 11:13:46;;;;;;;8.97;8.07;;;19.10;99.90;;;;;;5069749;28;20525;-73
2021/06/24 11:16:35;;;;;;;9.70;8.10;;;19.20;99.90;;;;;;5067785;28;20471;-73
2021/06/24 11:19:20;;;;;;;9.33;8.43;;;19.20;99.90;;;;;;5067157;28;20476;-73
2021/06/24 11:22:06;;;;;;;8.90;7.93;;;19.20;99.90;;;;;;5063836;28;20432;-73
2021/06/24 11:24:58;;;;;;;8.83;7.40;;;19.20;99.90;;;;;;5066212;28;20504;-73
2021/06/24 11:27:46;;;;;;;11.80;6.73;;;19.20;99.90;;;;;;5065179;28;20446;-74
2021/06/24 11:31:03;;;;;;;8.00;7.20;;;19.10;99.90;;;;;;5069598;28;20831;-73
2021/06/24 11:34:05;;;;;;;6.40;5.80;;;19.10;99.90;;;;;;5067077;28;20521;-74
2021/06/24 11:36:52;;;;;;;8.27;6.77;;;19.20;99.90;;;;;;5071701;28;20424;-74
2021/06/24 11:39:39;;;;;;;7.00;6.30;;;19.30;99.90;;;;;;5068849;28;20565;-73
2021/06/24 11:42:33;;;;;;;7.27;6.57;;;19.30;99.90;;;;;;5062705;28;20589;-73
2021/06/24 11:45:24;;;;;;;6.87;5.57;;;19.30;99.90;;;;;;5070429;28;20656;-73
2021/06/24 11:48:09;;;;;;;7.23;6.53;;;19.40;99.90;;;;;;5068320;28;20431;-73
2021/06/24 12:03:25;;;;;;;6.07;5.33;;;19.60;99.90;;;;;;5063142;28;20421;-73
2021/06/24 12:06:10;;;;;;;8.80;5.53;;;19.70;99.90;;;;;;5067290;28;20977;-73
2021/06/24 12:08:59;;;;;;;8.63;5.70;;;19.70;99.90;;;;;;5064867;28;20598;-74
2021/06/24 12:11:45;;;;;;;7.00;5.23;;;19.90;99.90;;;;;;5065675;28;22525;-74
2021/06/24 12:14:32;;;;;;;6.40;5.43;;;19.90;99.90;;;;;;5066009;28;20453;-73
2021/06/24 12:17:23;;;;;;;5.97;5.27;;;19.90;99.90;;;;;;5069174;28;20431;-73
2021/06/24 12:20:12;;;;;;;5.00;4.50;;;20.00;99.90;;;;;;5065952;28;20457;-73
2021/06/24 12:23:02;;;;;;;6.30;5.47;;;20.10;99.90;;;;;;5065292;28;20398;-73
2021/06/24 12:25:47;;;;;;;7.20;6.50;;;20.10;99.90;;;;;;5069945;28;20463;-73
2021/06/24 12:28:33;;;;;;;14.60;6.30;;;20.20;99.90;;;;;;5071567;28;20437;-74
2021/06/24 12:31:20;;;;;;;7.30;6.60;;;20.30;99.90;;;;;;5058197;28;20971;-74
2021/06/24 12:34:06;;;;;;;7.93;7.13;;;20.30;99.90;;;;;;5070216;28;20441;-74
2021/06/24 12:36:53;;;;;;;7.73;6.53;;;20.40;99.90;;;;;;5063004;28;20435;-74
2021/06/24 12:39:40;;;;;;;7.23;6.53;;;20.40;99.90;;;;;;5062610;28;21040;-73
2021/06/24 12:42:26;;;;;;;6.57;5.87;;;20.60;99.90;;;;;;5071641;28;20794;-73
2021/06/24 12:45:14;;;;;;;6.80;6.03;;;20.60;99.90;;;;;;5064017;28;20551;-73
2021/06/24 12:48:01;;;;;;;6.07;4.97;;;20.70;99.90;;;;;;5070752;28;20431;-73
2021/06/24 12:50:47;;;;;;;5.40;4.00;;;20.70;99.90;;;;;;5065973;28;20408;-73
2021/06/24 12:53:36;;;;;;;4.10;3.10;;;20.80;99.90;;;;;;5070545;28;20822;-73
2021/06/24 12:56:23;;;;;;;4.13;3.30;;;20.80;99.90;;;;;;5067163;28;20472;-73
2021/06/24 12:59:12;;;;;;;8.23;2.97;;;20.80;99.90;;;;;;5068213;28;20450;-74
2021/06/24 13:02:05;;;;;;;3.10;2.80;;;20.80;99.90;;;;;;5067470;28;20943;-74
2021/06/24 13:04:51;;;;;;;2.63;2.33;;;20.90;99.90;;;;;;5062580;28;20514;-74
2021/06/24 13:07:55;;;;;;;5.43;3.07;;;20.90;99.90;;;;;;5067740;28;20594;-74
2021/06/24 13:10:49;;;;;;;5.00;2.57;;;21.00;99.90;;;;;;5066819;28;20441;-74
2021/06/24 13:13:35;;;;;;;2.77;2.40;;;21.00;99.90;;;;;;5061079;28;20973;-74
2021/06/24 13:16:26;;;;;;;3.00;2.00;;;21.10;99.90;;;;;;5069242;28;21034;-74
2021/06/24 13:19:21;;;;;;;2.50;1.80;;;21.10;99.90;;;;;;5064787;28;20520;-74
2021/06/24 13:22:12;;;;;;;5.07;2.00;;;21.10;99.90;;;;;;5065096;28;20819;-74
2021/06/24 13:25:03;;;;;;;3.03;2.00;;;21.10;99.90;;;;;;5066719;28;20487;-74
2021/06/24 13:27:50;;;;;;;2.40;1.80;;;21.10;99.90;;;;;;5067835;28;20637;-73
2021/06/24 13:30:40;;;;;;;4.20;1.60;;;20.90;99.90;;;;;;5059720;28;20554;-73
2021/06/24 13:33:34;;;;;;;2.43;2.03;;;20.90;99.90;;;;;;5061663;28;20489;-74
2021/06/24 13:36:24;;;;;;;2.70;2.03;;;20.80;99.90;;;;;;5053508;28;20456;-74
2021/06/24 13:39:13;;;;;;;3.23;2.27;;;20.80;99.90;;;;;;5051681;28;20384;-74
2021/06/24 13:41:58;;;;;;;4.47;2.27;;;20.70;99.90;;;;;;5063188;28;20784;-74
2021/06/24 13:44:46;;;;;;;5.70;2.37;;;20.70;99.90;;;;;;5070303;28;20434;-75
2021/06/24 13:47:31;;;;;;;2.90;2.50;;;20.80;99.90;;;;;;5071540;28;20394;-74
2021/06/24 13:50:18;;;;;;;4.43;2.97;;;20.80;99.90;;;;;;5071427;28;20466;-73
2021/06/24 13:53:12;;;;;;;4.00;2.90;;;20.90;99.90;;;;;;5071389;28;20461;-73
2021/06/24 13:55:58;;;;;;;3.30;2.63;;;20.90;99.90;;;;;;5071069;28;20778;-74
2021/06/24 13:58:44;;;;;;;5.90;3.00;;;20.90;99.90;;;;;;5071689;28;20440;-74
2021/06/24 14:01:31;;;;;;;3.77;2.60;;;21.00;99.90;;;;;;5071361;28;20430;-74
2021/06/24 14:04:17;;;;;;;4.90;3.13;;;21.00;99.90;;;;;;5071296;28;20441;-74
2021/06/24 14:07:04;;;;;;;4.60;2.70;;;20.90;99.90;;;;;;5071305;28;20439;-74
2021/06/24 14:09:49;;;;;;;4.53;2.77;;;21.00;99.90;;;;;;5065409;28;20456;-73
2021/06/24 14:12:37;;;;;;;4.00;2.83;;;20.90;99.90;;;;;;5063222;28;20483;-75
2021/06/24 14:15:23;;;;;;;4.00;3.47;;;20.90;99.90;;;;;;5070027;28;20448;-74
2021/06/24 14:18:11;;;;;;;4.50;3.60;;;21.00;99.90;;;;;;5071330;28;20418;-74
2021/06/24 14:20:56;;;;;;;4.03;3.63;;;20.90;99.90;;;;;;5071138;28;20407;-74
2021/06/24 14:23:42;;;;;;;5.40;3.80;;;20.90;99.90;;;;;;5071800;28;20441;-74
2021/06/24 14:26:30;;;;;;;4.10;3.70;;;20.90;99.90;;;;;;5072799;28;20442;-75
2021/06/24 14:29:15;;;;;;;4.23;3.53;;;20.90;99.90;;;;;;5074591;28;20466;-75
2021/06/24 14:32:01;;;;;;;7.33;4.13;;;20.90;99.90;;;;;;5074651;28;20497;-74